nws-alerts: Checking more than four warning/county codes can delay the loading of your pages. You should use a cron job to get the data.
EllijayWeather Station Historical Data
Daily Summary for February 14, 2019 Units:  English    Metric   Both
Daily Weekly Monthly Yearly Custom
  High: Low: Average:
Temperature: 58.8 °F 27.7 °F 44.5 °F
Dew Point: 36.9 °F 23.4 °F 27.2 °F
Humidity: 93% 26% 58%
Wind Speed: 6.0mph 0.0mph 0.1mph
Wind Gust: 7.0mph - -
Wind- - ESE
Pressure: 30.26 in 30.00 in -
Precipitation: 0.00 in    
Historical Graphs
 
 
Tabular Data for February 14, 2019
Time Temperature Dew Point Pressure Wind Wind Speed Wind Gust Humidity Rainfall Rate (Hourly) solar
00:04 29.1 °F 25.7 °F 30.24 in Calm     87% 0.00 in meteobridge W/m2
00:09 29.1 °F 26.1 °F 30.24 in Calm     88% 0.00 in meteobridge W/m2
00:14 29.1 °F 26.2 °F 30.24 in Calm     89% 0.00 in meteobridge W/m2
00:19 28.9 °F 25.9 °F 30.24 in Calm     88% 0.00 in meteobridge W/m2
00:24 28.9 °F 25.9 °F 30.24 in Calm     88% 0.00 in meteobridge W/m2
00:29 28.9 °F 25.9 °F 30.24 in Calm     88% 0.00 in meteobridge W/m2
00:34 28.9 °F 26.1 °F 30.24 in Calm     89% 0.00 in meteobridge W/m2
00:39 28.9 °F 26.1 °F 30.24 in Calm     89% 0.00 in meteobridge W/m2
00:44 28.9 °F 25.9 °F 30.24 in Calm     88% 0.00 in meteobridge W/m2
00:49 28.9 °F 25.9 °F 30.24 in Calm     88% 0.00 in meteobridge W/m2
00:54 28.9 °F 25.9 °F 30.25 in Calm     88% 0.00 in meteobridge W/m2
00:59 28.9 °F 26.1 °F 30.25 in Calm     89% 0.00 in meteobridge W/m2
01:04 28.9 °F 25.9 °F 30.25 in Calm     88% 0.00 in meteobridge W/m2
01:09 28.9 °F 25.9 °F 30.24 in Calm     88% 0.00 in meteobridge W/m2
01:14 28.8 °F 25.9 °F 30.24 in Calm     89% 0.00 in meteobridge W/m2
01:19 28.8 °F 25.9 °F 30.25 in Calm     89% 0.00 in meteobridge W/m2
01:24 28.8 °F 25.9 °F 30.25 in Calm     89% 0.00 in meteobridge W/m2
01:29 28.6 °F 25.7 °F 30.24 in Calm     89% 0.00 in meteobridge W/m2
01:34 28.6 °F 25.7 °F 30.24 in Calm     89% 0.00 in meteobridge W/m2
01:39 28.6 °F 25.7 °F 30.24 in Calm     89% 0.00 in meteobridge W/m2
01:44 28.6 °F 25.7 °F 30.24 in Calm     89% 0.00 in meteobridge W/m2
01:49 28.6 °F 26.1 °F 30.24 in Calm     90% 0.00 in meteobridge W/m2
01:54 28.4 °F 25.5 °F 30.24 in Calm     89% 0.00 in meteobridge W/m2
01:59 28.4 °F 25.5 °F 30.24 in Calm     89% 0.00 in meteobridge W/m2
02:04 28.2 °F 25.3 °F 30.24 in Calm     89% 0.00 in meteobridge W/m2
02:09 28.2 °F 25.3 °F 30.24 in Calm     89% 0.00 in meteobridge W/m2
02:14 28.2 °F 25.3 °F 30.24 in Calm     89% 0.00 in meteobridge W/m2
02:19 28.2 °F 25.7 °F 30.24 in Calm     90% 0.00 in meteobridge W/m2
02:24 28.2 °F 25.7 °F 30.24 in Calm     90% 0.00 in meteobridge W/m2
02:29 28.2 °F 25.7 °F 30.24 in Calm     90% 0.00 in meteobridge W/m2
02:34 28.2 °F 25.7 °F 30.25 in Calm     90% 0.00 in meteobridge W/m2
02:39 28.2 °F 25.7 °F 30.24 in Calm     90% 0.00 in meteobridge W/m2
02:44 28.0 °F 25.5 °F 30.25 in Calm     90% 0.00 in meteobridge W/m2
02:49 28.0 °F 25.5 °F 30.25 in Calm     90% 0.00 in meteobridge W/m2
02:54 28.0 °F 25.5 °F 30.25 in Calm     90% 0.00 in meteobridge W/m2
02:59 28.0 °F 25.5 °F 30.25 in Calm     90% 0.00 in meteobridge W/m2
03:04 27.9 °F 25.3 °F 30.25 in Calm     90% 0.00 in meteobridge W/m2
03:09 27.9 °F 25.3 °F 30.25 in Calm     90% 0.00 in meteobridge W/m2
03:14 27.9 °F 25.3 °F 30.25 in Calm     90% 0.00 in meteobridge W/m2
03:19 27.9 °F 25.3 °F 30.25 in Calm     90% 0.00 in meteobridge W/m2
03:24 27.7 °F 25.3 °F 30.26 in Calm     91% 0.00 in meteobridge W/m2
03:29 27.7 °F 25.3 °F 30.25 in Calm     91% 0.00 in meteobridge W/m2
03:34 27.7 °F 25.3 °F 30.25 in Calm     91% 0.00 in meteobridge W/m2
03:39 27.9 °F 25.9 °F 30.24 in Calm     92% 0.00 in meteobridge W/m2
03:44 27.9 °F 25.9 °F 30.25 in Calm     92% 0.00 in meteobridge W/m2
03:49 27.9 °F 25.9 °F 30.24 in Calm     92% 0.00 in meteobridge W/m2
03:54 28.0 °F 26.1 °F 30.23 in Calm     92% 0.00 in meteobridge W/m2
03:59 28.0 °F 25.7 °F 30.23 in Calm     91% 0.00 in meteobridge W/m2
04:04 28.2 °F 26.2 °F 30.23 in Calm     92% 0.00 in meteobridge W/m2
04:09 28.4 °F 26.4 °F 30.23 in Calm     92% 0.00 in meteobridge W/m2
04:14 28.6 °F 26.2 °F 30.22 in Calm     91% 0.00 in meteobridge W/m2
04:19 28.8 °F 26.4 °F 30.22 in Calm     91% 0.00 in meteobridge W/m2
04:24 28.8 °F 26.4 °F 30.22 in Calm     91% 0.00 in meteobridge W/m2
04:29 28.9 °F 26.6 °F 30.22 in Calm     91% 0.00 in meteobridge W/m2
04:34 28.9 °F 26.4 °F 30.21 in Calm     90% 0.00 in meteobridge W/m2
04:39 29.1 °F 26.6 °F 30.22 in Calm     90% 0.00 in meteobridge W/m2
04:44 28.9 °F 26.4 °F 30.22 in Calm     90% 0.00 in meteobridge W/m2
04:49 29.1 °F 26.6 °F 30.22 in Calm     90% 0.00 in meteobridge W/m2
04:54 29.1 °F 26.6 °F 30.22 in Calm     90% 0.00 in meteobridge W/m2
04:59 29.1 °F 26.6 °F 30.22 in Calm     90% 0.00 in meteobridge W/m2
05:04 29.3 °F 26.4 °F 30.22 in Calm     89% 0.00 in meteobridge W/m2
05:09 29.5 °F 26.6 °F 30.22 in Calm     89% 0.00 in meteobridge W/m2
05:14 29.5 °F 26.6 °F 30.22 in Calm     89% 0.00 in meteobridge W/m2
05:19 29.5 °F 26.4 °F 30.22 in Calm     88% 0.00 in meteobridge W/m2
05:24 29.5 °F 26.6 °F 30.22 in Calm     89% 0.00 in meteobridge W/m2
05:29 29.5 °F 26.6 °F 30.22 in Calm     89% 0.00 in meteobridge W/m2
05:34 29.3 °F 26.8 °F 30.22 in Calm     90% 0.00 in meteobridge W/m2
05:39 29.1 °F 26.6 °F 30.22 in Calm     90% 0.00 in meteobridge W/m2
05:44 29.1 °F 26.6 °F 30.21 in Calm     90% 0.00 in meteobridge W/m2
05:49 29.1 °F 26.6 °F 30.22 in Calm     90% 0.00 in meteobridge W/m2
05:54 29.1 °F 26.6 °F 30.22 in Calm     90% 0.00 in meteobridge W/m2
05:59 29.1 °F 26.8 °F 30.21 in Calm     91% 0.00 in meteobridge W/m2
06:04 29.1 °F 26.6 °F 30.21 in Calm     90% 0.00 in meteobridge W/m2
06:09 29.1 °F 26.6 °F 30.21 in Calm     90% 0.00 in meteobridge W/m2
06:14 29.1 °F 26.6 °F 30.20 in Calm     90% 0.00 in meteobridge W/m2
06:19 29.3 °F 26.8 °F 30.20 in Calm     90% 0.00 in meteobridge W/m2
06:24 29.5 °F 27.0 °F 30.20 in Calm     90% 0.00 in meteobridge W/m2
06:29 29.5 °F 27.0 °F 30.20 in Calm     90% 0.00 in meteobridge W/m2
06:34 29.7 °F 27.1 °F 30.21 in Calm     90% 0.00 in meteobridge W/m2
06:39 29.7 °F 26.8 °F 30.20 in Calm     89% 0.00 in meteobridge W/m2
06:44 29.7 °F 26.8 °F 30.21 in Calm     89% 0.00 in meteobridge W/m2
06:49 29.8 °F 27.3 °F 30.21 in Calm     90% 0.00 in meteobridge W/m2
06:54 29.8 °F 27.3 °F 30.21 in Calm     90% 0.00 in meteobridge W/m2
06:59 29.8 °F 27.0 °F 30.22 in Calm     89% 0.00 in meteobridge W/m2
07:04 29.8 °F 27.0 °F 30.22 in Calm     89% 0.00 in meteobridge W/m2
07:09 29.7 °F 26.8 °F 30.21 in Calm     89% 0.00 in meteobridge W/m2
07:14 29.7 °F 26.8 °F 30.22 in Calm     89% 0.00 in meteobridge W/m2
07:19 29.5 °F 26.6 °F 30.21 in Calm     89% 0.00 in meteobridge W/m2
07:24 29.3 °F 26.4 °F 30.21 in Calm     89% 0.00 in meteobridge W/m2
07:29 29.1 °F 26.2 °F 30.21 in Calm     89% 0.00 in meteobridge W/m2
07:34 28.9 °F 26.4 °F 30.21 in Calm     90% 0.00 in meteobridge W/m2
07:39 28.8 °F 26.2 °F 30.21 in Calm     90% 0.00 in meteobridge W/m2
07:44 28.8 °F 26.2 °F 30.21 in Calm     90% 0.00 in meteobridge W/m2
07:49 28.6 °F 26.1 °F 30.21 in Calm     90% 0.00 in meteobridge W/m2
07:54 28.6 °F 26.1 °F 30.21 in Calm     90% 0.00 in meteobridge W/m2
07:59 28.6 °F 26.2 °F 30.21 in Calm     91% 0.00 in meteobridge W/m2
08:04 28.6 °F 26.2 °F 30.21 in Calm     91% 0.00 in meteobridge W/m2
08:09 28.8 °F 26.8 °F 30.22 in Calm     92% 0.00 in meteobridge W/m2
08:14 28.8 °F 26.8 °F 30.22 in Calm     92% 0.00 in meteobridge W/m2
08:19 28.8 °F 27.0 °F 30.22 in Calm     93% 0.00 in meteobridge W/m2
08:24 29.1 °F 27.1 °F 30.22 in Calm     92% 0.00 in meteobridge W/m2
08:29 29.3 °F 27.5 °F 30.22 in Calm     93% 0.00 in meteobridge W/m2
08:34 29.8 °F 28.0 °F 30.22 in Calm     93% 0.00 in meteobridge W/m2
08:39 30.4 °F 28.6 °F 30.22 in Calm     93% 0.00 in meteobridge W/m2
08:44 30.7 °F 28.8 °F 30.22 in Calm     92% 0.00 in meteobridge W/m2
08:49 31.3 °F 29.3 °F 30.22 in Calm     92% 0.00 in meteobridge W/m2
08:54 31.6 °F 29.7 °F 30.22 in Calm     92% 0.00 in meteobridge W/m2
08:59 32.2 °F 30.2 °F 30.23 in Calm     92% 0.00 in meteobridge W/m2
09:04 32.7 °F 30.4 °F 30.22 in Calm     91% 0.00 in meteobridge W/m2
09:09 33.6 °F 30.4 °F 30.22 in Calm     88% 0.00 in meteobridge W/m2
09:14 34.5 °F 31.3 °F 30.22 in Calm     88% 0.00 in meteobridge W/m2
09:19 35.4 °F 32.0 °F 30.22 in Calm     87% 0.00 in meteobridge W/m2
09:24 36.1 °F 31.5 °F 30.22 in Calm     83% 0.00 in meteobridge W/m2
09:29 36.9 °F 32.2 °F 30.22 in Calm     83% 0.00 in meteobridge W/m2
09:34 37.9 °F 32.9 °F 30.21 in Calm     82% 0.00 in meteobridge W/m2
09:39 38.7 °F 33.6 °F 30.21 in Calm     82% 0.00 in meteobridge W/m2
09:44 39.2 °F 34.5 °F 30.21 in Calm     83% 0.00 in meteobridge W/m2
09:49 39.9 °F 34.9 °F 30.20 in Calm     82% 0.00 in meteobridge W/m2
09:54 40.5 °F 35.4 °F 30.20 in Calm     82% 0.00 in meteobridge W/m2
09:59 40.8 °F 34.5 °F 30.20 in Calm     78% 0.00 in meteobridge W/m2
10:04 41.4 °F 34.0 °F 30.20 in Calm     75% 0.00 in meteobridge W/m2
10:09 41.5 °F 33.8 °F 30.19 in Calm     74% 0.00 in meteobridge W/m2
10:14 42.1 °F 35.4 °F 30.19 in Calm     77% 0.00 in meteobridge W/m2
10:19 43.0 °F 36.9 °F 30.19 in Calm     79% 0.00 in meteobridge W/m2
10:24 43.9 °F 36.9 °F 30.18 in Calm     76% 0.00 in meteobridge W/m2
10:29 45.0 °F 33.4 °F 30.18 in Calm     64% 0.00 in meteobridge W/m2
10:34 46.2 °F 35.4 °F 30.17 in Calm     66% 0.00 in meteobridge W/m2
10:39 47.1 °F 33.1 °F 30.17 in Calm     58% 0.00 in meteobridge W/m2
10:44 48.0 °F 34.0 °F 30.17 in Calm     58% 0.00 in meteobridge W/m2
10:49 48.6 °F 33.6 °F 30.18 in Calm     56% 0.00 in meteobridge W/m2
10:54 49.3 °F 31.5 °F 30.18 in Calm     50% 0.00 in meteobridge W/m2
10:59 49.8 °F 27.7 °F 30.19 in Calm     42% 0.00 in meteobridge W/m2
11:04 51.1 °F 27.0 °F 30.19 in Calm     39% 0.00 in meteobridge W/m2
11:09 52.0 °F 25.9 °F 30.19 in Calm   1.0 mph 36% 0.00 in meteobridge W/m2
11:14 52.9 °F 25.3 °F 30.19 in Calm     34% 0.00 in meteobridge W/m2
11:19 53.2 °F 24.1 °F 30.19 in Calm     32% 0.00 in meteobridge W/m2
11:24 53.8 °F 24.6 °F 30.19 in Calm   4.0 mph 32% 0.00 in meteobridge W/m2
11:29 54.1 °F 24.1 °F 30.19 in Calm   2.0 mph 31% 0.00 in meteobridge W/m2
11:34 54.5 °F 24.4 °F 30.18 in Calm   1.0 mph 31% 0.00 in meteobridge W/m2
11:39 54.7 °F 26.1 °F 30.18 in Calm   1.0 mph 33% 0.00 in meteobridge W/m2
11:44 55.0 °F 23.4 °F 30.17 in Calm   6.0 mph 29% 0.00 in meteobridge W/m2
11:49 55.4 °F 27.5 °F 30.17 in Calm     34% 0.00 in meteobridge W/m2
11:54 55.9 °F 25.7 °F 30.16 in Calm   1.0 mph 31% 0.00 in meteobridge W/m2
11:59 56.1 °F 24.3 °F 30.15 in Calm   4.0 mph 29% 0.00 in meteobridge W/m2
12:04 56.3 °F 26.8 °F 30.15 in Calm   4.0 mph 32% 0.00 in meteobridge W/m2
12:09 56.7 °F 24.8 °F 30.15 in Calm   2.0 mph 29% 0.00 in meteobridge W/m2
12:14 56.7 °F 25.5 °F 30.16 in SE 0.9 mph 1.0 mph 30% 0.00 in meteobridge W/m2
12:19 56.5 °F 24.6 °F 30.16 in Calm     29% 0.00 in meteobridge W/m2
12:24 56.5 °F 26.2 °F 30.15 in SE 2.0 mph 2.0 mph 31% 0.00 in meteobridge W/m2
12:29 57.0 °F 24.3 °F 30.15 in ESE 0.9 mph 4.0 mph 28% 0.00 in meteobridge W/m2
12:34 57.4 °F 25.3 °F 30.14 in ESE 2.0 mph 2.0 mph 29% 0.00 in meteobridge W/m2
12:39 57.4 °F 25.3 °F 30.14 in Calm   4.0 mph 29% 0.00 in meteobridge W/m2
12:44 57.4 °F 24.6 °F 30.13 in SE 4.0 mph 4.0 mph 28% 0.00 in meteobridge W/m2
12:49 57.4 °F 25.3 °F 30.13 in Calm   1.0 mph 29% 0.00 in meteobridge W/m2
12:54 57.2 °F 23.5 °F 30.13 in Calm   4.0 mph 27% 0.00 in meteobridge W/m2
12:59 56.8 °F 25.0 °F 30.12 in Calm   1.0 mph 29% 0.00 in meteobridge W/m2
13:04 57.0 °F 26.6 °F 30.12 in Calm   1.0 mph 31% 0.00 in meteobridge W/m2
13:09 57.4 °F 25.3 °F 30.12 in Calm   1.0 mph 29% 0.00 in meteobridge W/m2
13:14 57.7 °F 26.4 °F 30.11 in Calm   2.0 mph 30% 0.00 in meteobridge W/m2
13:19 57.6 °F 26.4 °F 30.11 in Calm     30% 0.00 in meteobridge W/m2
13:24 57.6 °F 26.4 °F 30.11 in Calm   1.0 mph 30% 0.00 in meteobridge W/m2
13:29 57.6 °F 25.5 °F 30.11 in SE 2.0 mph 2.0 mph 29% 0.00 in meteobridge W/m2
13:34 57.6 °F 27.9 °F 30.10 in Calm     32% 0.00 in meteobridge W/m2
13:39 57.9 °F 25.9 °F 30.10 in Calm     29% 0.00 in meteobridge W/m2
13:44 57.9 °F 25.9 °F 30.10 in ESE 4.0 mph 4.0 mph 29% 0.00 in meteobridge W/m2
13:49 57.9 °F 25.0 °F 30.09 in Calm   1.0 mph 28% 0.00 in meteobridge W/m2
13:54 58.3 °F 25.3 °F 30.09 in Calm   2.0 mph 28% 0.00 in meteobridge W/m2
13:59 58.1 °F 25.2 °F 30.09 in Calm   4.0 mph 28% 0.00 in meteobridge W/m2
14:04 57.9 °F 25.0 °F 30.09 in Calm     28% 0.00 in meteobridge W/m2
14:09 57.9 °F 26.6 °F 30.09 in Calm     30% 0.00 in meteobridge W/m2
14:14 57.9 °F 25.9 °F 30.09 in Calm     29% 0.00 in meteobridge W/m2
14:19 57.7 °F 26.4 °F 30.09 in Calm     30% 0.00 in meteobridge W/m2
14:24 57.6 °F 27.1 °F 30.08 in Calm   1.0 mph 31% 0.00 in meteobridge W/m2
14:29 57.6 °F 26.4 °F 30.08 in Calm     30% 0.00 in meteobridge W/m2
14:34 57.6 °F 26.4 °F 30.07 in Calm     30% 0.00 in meteobridge W/m2
14:39 57.6 °F 26.4 °F 30.08 in East 0.9 mph 1.0 mph 30% 0.00 in meteobridge W/m2
14:44 57.7 °F 25.7 °F 30.08 in Calm   1.0 mph 29% 0.00 in meteobridge W/m2
14:49 58.3 °F 26.2 °F 30.08 in Calm     29% 0.00 in meteobridge W/m2
14:54 58.8 °F 25.0 °F 30.07 in Calm   3.0 mph 27% 0.00 in meteobridge W/m2
14:59 58.8 °F 25.7 °F 30.06 in Calm   2.0 mph 28% 0.00 in meteobridge W/m2
15:04 58.8 °F 25.7 °F 30.07 in Calm   1.0 mph 28% 0.00 in meteobridge W/m2
15:09 58.6 °F 27.3 °F 30.08 in Calm   1.0 mph 30% 0.00 in meteobridge W/m2
15:14 58.6 °F 25.7 °F 30.06 in ESE 0.9 mph 2.0 mph 28% 0.00 in meteobridge W/m2
15:19 58.6 °F 24.8 °F 30.06 in ESE 0.9 mph 2.0 mph 27% 0.00 in meteobridge W/m2
15:24 58.6 °F 25.7 °F 30.05 in Calm     28% 0.00 in meteobridge W/m2
15:29 58.6 °F 25.7 °F 30.05 in Calm     28% 0.00 in meteobridge W/m2
15:34 58.6 °F 25.7 °F 30.04 in Calm   4.0 mph 28% 0.00 in meteobridge W/m2
15:39 58.5 °F 25.5 °F 30.03 in Calm   5.0 mph 28% 0.00 in meteobridge W/m2
15:44 58.5 °F 24.6 °F 30.03 in Calm     27% 0.00 in meteobridge W/m2
15:49 58.5 °F 25.5 °F 30.04 in Calm     28% 0.00 in meteobridge W/m2
15:54 58.5 °F 26.2 °F 30.04 in Calm   1.0 mph 29% 0.00 in meteobridge W/m2
15:59 58.5 °F 23.7 °F 30.04 in Calm   7.0 mph 26% 0.00 in meteobridge W/m2
16:04 58.5 °F 23.7 °F 30.04 in Calm   4.0 mph 26% 0.00 in meteobridge W/m2
16:09 58.5 °F 26.2 °F 30.04 in Calm   1.0 mph 29% 0.00 in meteobridge W/m2
16:14 58.3 °F 25.3 °F 30.04 in Calm   1.0 mph 28% 0.00 in meteobridge W/m2
16:19 58.3 °F 25.3 °F 30.04 in Calm   5.0 mph 28% 0.00 in meteobridge W/m2
16:24 58.1 °F 25.2 °F 30.03 in Calm   4.0 mph 28% 0.00 in meteobridge W/m2
16:29 57.9 °F 24.1 °F 30.03 in SE 0.9 mph 1.0 mph 27% 0.00 in meteobridge W/m2
16:34 57.9 °F 24.1 °F 30.03 in Calm   1.0 mph 27% 0.00 in meteobridge W/m2
16:39 57.7 °F 24.8 °F 30.03 in Calm     28% 0.00 in meteobridge W/m2
16:44 57.7 °F 24.8 °F 30.03 in Calm   2.0 mph 28% 0.00 in meteobridge W/m2
16:49 57.6 °F 25.5 °F 30.03 in Calm     29% 0.00 in meteobridge W/m2
16:54 57.4 °F 24.6 °F 30.02 in Calm   4.0 mph 28% 0.00 in meteobridge W/m2
16:59 57.4 °F 25.3 °F 30.01 in Calm     29% 0.00 in meteobridge W/m2
17:04 57.2 °F 26.1 °F 30.01 in Calm   1.0 mph 30% 0.00 in meteobridge W/m2
17:09 57.0 °F 24.3 °F 30.01 in East 0.9 mph 5.0 mph 28% 0.00 in meteobridge W/m2
17:14 57.0 °F 25.0 °F 30.01 in Calm   1.0 mph 29% 0.00 in meteobridge W/m2
17:19 57.2 °F 26.8 °F 30.02 in Calm   2.0 mph 31% 0.00 in meteobridge W/m2
17:24 57.0 °F 24.3 °F 30.02 in Calm   1.0 mph 28% 0.00 in meteobridge W/m2
17:29 57.2 °F 25.2 °F 30.03 in Calm   1.0 mph 29% 0.00 in meteobridge W/m2
17:34 57.0 °F 25.0 °F 30.03 in Calm   1.0 mph 29% 0.00 in meteobridge W/m2
17:39 56.8 °F 25.7 °F 30.03 in Calm     30% 0.00 in meteobridge W/m2
17:44 56.7 °F 24.8 °F 30.03 in Calm   1.0 mph 29% 0.00 in meteobridge W/m2
17:49 56.7 °F 25.5 °F 30.03 in Calm     30% 0.00 in meteobridge W/m2
17:54 56.5 °F 25.3 °F 30.03 in Calm   1.0 mph 30% 0.00 in meteobridge W/m2
17:59 56.3 °F 25.3 °F 30.02 in Calm     30% 0.00 in meteobridge W/m2
18:04 56.1 °F 25.9 °F 30.02 in Calm     31% 0.00 in meteobridge W/m2
18:09 56.1 °F 26.6 °F 30.02 in Calm   1.0 mph 32% 0.00 in meteobridge W/m2
18:14 55.9 °F 26.4 °F 30.02 in Calm     32% 0.00 in meteobridge W/m2
18:19 55.8 °F 27.1 °F 30.02 in Calm     33% 0.00 in meteobridge W/m2
18:24 55.8 °F 27.1 °F 30.01 in Calm   1.0 mph 33% 0.00 in meteobridge W/m2
18:29 55.8 °F 25.5 °F 30.02 in Calm     31% 0.00 in meteobridge W/m2
18:34 55.9 °F 25.7 °F 30.02 in Calm   1.0 mph 31% 0.00 in meteobridge W/m2
18:39 55.9 °F 25.7 °F 30.02 in Calm   1.0 mph 31% 0.00 in meteobridge W/m2
18:44 55.9 °F 25.7 °F 30.01 in Calm     31% 0.00 in meteobridge W/m2
18:49 55.8 °F 26.4 °F 30.01 in Calm     32% 0.00 in meteobridge W/m2
18:54 55.6 °F 27.0 °F 30.01 in Calm     33% 0.00 in meteobridge W/m2
18:59 55.2 °F 25.9 °F 30.01 in Calm   3.0 mph 32% 0.00 in meteobridge W/m2
19:04 55.2 °F 29.5 °F 30.02 in Calm     37% 0.00 in meteobridge W/m2
19:09 55.2 °F 25.9 °F 30.02 in Calm     32% 0.00 in meteobridge W/m2
19:14 55.4 °F 26.1 °F 30.02 in Calm   5.0 mph 32% 0.00 in meteobridge W/m2
19:19 55.6 °F 27.0 °F 30.02 in Calm   1.0 mph 33% 0.00 in meteobridge W/m2
19:24 55.2 °F 27.3 °F 30.01 in SE 2.0 mph 5.0 mph 34% 0.00 in meteobridge W/m2
19:29 55.6 °F 27.7 °F 30.02 in Calm   4.0 mph 34% 0.00 in meteobridge W/m2
19:34 55.6 °F 28.4 °F 30.01 in Calm     35% 0.00 in meteobridge W/m2
19:39 55.4 °F 28.2 °F 30.01 in Calm   1.0 mph 35% 0.00 in meteobridge W/m2
19:44 55.4 °F 28.9 °F 30.01 in Calm     36% 0.00 in meteobridge W/m2
19:49 55.2 °F 29.5 °F 30.01 in Calm   2.0 mph 37% 0.00 in meteobridge W/m2
19:54 55.0 °F 28.6 °F 30.00 in Calm   2.0 mph 36% 0.00 in meteobridge W/m2
19:59 54.9 °F 29.7 °F 30.02 in Calm     38% 0.00 in meteobridge W/m2
20:04 54.7 °F 30.2 °F 30.02 in Calm     39% 0.00 in meteobridge W/m2
20:09 54.3 °F 29.3 °F 30.01 in Calm   1.0 mph 38% 0.00 in meteobridge W/m2
20:14 54.3 °F 28.6 °F 30.02 in Calm   2.0 mph 37% 0.00 in meteobridge W/m2
20:19 54.3 °F 31.1 °F 30.01 in Calm     41% 0.00 in meteobridge W/m2
20:24 54.3 °F 28.6 °F 30.01 in Calm   1.0 mph 37% 0.00 in meteobridge W/m2
20:29 54.5 °F 28.0 °F 30.01 in Calm   5.0 mph 36% 0.00 in meteobridge W/m2
20:34 54.9 °F 27.0 °F 30.01 in Calm   6.0 mph 34% 0.00 in meteobridge W/m2
20:39 55.0 °F 27.1 °F 30.01 in Calm   2.0 mph 34% 0.00 in meteobridge W/m2
20:44 55.0 °F 27.1 °F 30.01 in Calm   4.0 mph 34% 0.00 in meteobridge W/m2
20:49 55.0 °F 26.4 °F 30.01 in Calm   1.0 mph 33% 0.00 in meteobridge W/m2
20:54 55.0 °F 27.1 °F 30.02 in Calm     34% 0.00 in meteobridge W/m2
20:59 55.0 °F 26.4 °F 30.02 in Calm   1.0 mph 33% 0.00 in meteobridge W/m2
21:04 55.0 °F 27.9 °F 30.01 in East 2.0 mph 2.0 mph 35% 0.00 in meteobridge W/m2
21:09 54.9 °F 27.7 °F 30.01 in Calm     35% 0.00 in meteobridge W/m2
21:14 54.9 °F 27.7 °F 30.02 in East 0.9 mph 2.0 mph 35% 0.00 in meteobridge W/m2
21:19 54.9 °F 28.4 °F 30.02 in Calm     36% 0.00 in meteobridge W/m2
21:24 54.7 °F 28.2 °F 30.02 in Calm     36% 0.00 in meteobridge W/m2
21:29 54.7 °F 27.5 °F 30.02 in Calm   5.0 mph 35% 0.00 in meteobridge W/m2
21:34 54.5 °F 27.3 °F 30.02 in Calm   4.0 mph 35% 0.00 in meteobridge W/m2
21:39 54.5 °F 28.8 °F 30.02 in Calm   5.0 mph 37% 0.00 in meteobridge W/m2
21:44 54.5 °F 28.8 °F 30.02 in SE 6.0 mph 6.0 mph 37% 0.00 in meteobridge W/m2
21:49 54.5 °F 28.8 °F 30.03 in Calm   1.0 mph 37% 0.00 in meteobridge W/m2
21:54 54.3 °F 29.3 °F 30.03 in Calm     38% 0.00 in meteobridge W/m2
21:59 54.1 °F 29.1 °F 30.03 in SE 0.9 mph 1.0 mph 38% 0.00 in meteobridge W/m2
22:04 54.1 °F 29.1 °F 30.03 in Calm     38% 0.00 in meteobridge W/m2
22:09 54.0 °F 29.5 °F 30.03 in Calm   4.0 mph 39% 0.00 in meteobridge W/m2
22:14 53.8 °F 30.0 °F 30.03 in Calm     40% 0.00 in meteobridge W/m2
22:19 53.8 °F 30.0 °F 30.04 in Calm   1.0 mph 40% 0.00 in meteobridge W/m2
22:24 53.6 °F 29.3 °F 30.05 in Calm   4.0 mph 39% 0.00 in meteobridge W/m2
22:29 53.4 °F 30.9 °F 30.03 in Calm     42% 0.00 in meteobridge W/m2
22:34 53.2 °F 30.7 °F 30.04 in Calm     42% 0.00 in meteobridge W/m2
22:39 53.2 °F 29.5 °F 30.04 in Calm   1.0 mph 40% 0.00 in meteobridge W/m2
22:44 53.2 °F 31.3 °F 30.04 in Calm   1.0 mph 43% 0.00 in meteobridge W/m2
22:49 52.9 °F 30.9 °F 30.03 in Calm     43% 0.00 in meteobridge W/m2
22:54 52.9 °F 30.9 °F 30.03 in Calm     43% 0.00 in meteobridge W/m2
22:59 52.9 °F 30.9 °F 30.03 in Calm     43% 0.00 in meteobridge W/m2
23:04 52.5 °F 30.7 °F 30.04 in Calm   1.0 mph 43% 0.00 in meteobridge W/m2
23:09 52.5 °F 30.7 °F 30.04 in Calm     43% 0.00 in meteobridge W/m2
23:14 52.3 °F 30.6 °F 30.03 in Calm     43% 0.00 in meteobridge W/m2
23:19 52.3 °F 31.1 °F 30.03 in Calm   1.0 mph 44% 0.00 in meteobridge W/m2
23:24 52.2 °F 30.4 °F 30.03 in Calm     43% 0.00 in meteobridge W/m2
23:29 52.0 °F 31.3 °F 30.04 in Calm     45% 0.00 in meteobridge W/m2
23:34 51.8 °F 30.6 °F 30.03 in Calm     44% 0.00 in meteobridge W/m2
23:39 51.8 °F 32.2 °F 30.03 in Calm     47% 0.00 in meteobridge W/m2
23:44 51.6 °F 30.9 °F 30.03 in Calm     45% 0.00 in meteobridge W/m2
23:49 51.6 °F 30.9 °F 30.04 in Calm     45% 0.00 in meteobridge W/m2
23:54 51.6 °F 31.5 °F 30.03 in Calm     46% 0.00 in meteobridge W/m2
23:59 51.4 °F 31.8 °F 30.02 in Calm     47% 0.00 in meteobridge W/m2
EllijayWeather
Compliments of Weather Underground - 2.5 mb